createdAt,value
2019-02-08T00:02:14.363Z,16.50
2019-02-08T00:04:43.901Z,22.57
2019-02-08T00:07:13.717Z,17.37
2019-02-08T00:09:43.112Z,13.67
2019-02-08T00:12:12.412Z,31.33
2019-02-08T00:14:42.686Z,18.63
2019-02-08T00:17:12.085Z,21.87
2019-02-08T00:19:41.465Z,18.77
2019-02-08T00:22:11.142Z,14.70
2019-02-08T00:24:41.421Z,13.77
2019-02-08T00:27:10.804Z,21.90
2019-02-08T00:29:40.179Z,21.43
2019-02-08T00:32:09.511Z,27.97
2019-02-08T00:34:38.945Z,21.27
2019-02-08T00:37:08.747Z,28.70
2019-02-08T00:39:38.155Z,18.03
2019-02-08T00:42:09.493Z,15.17
2019-02-08T00:44:38.910Z,16.60
2019-02-08T00:47:08.249Z,14.17
2019-02-08T00:49:37.639Z,27.60
2019-02-08T00:52:06.997Z,25.43
2019-02-08T00:54:36.431Z,17.97
2019-02-08T00:57:05.837Z,17.07
2019-02-08T00:59:35.243Z,21.23
2019-02-08T01:02:04.634Z,27.47
2019-02-08T01:04:34.051Z,22.90
2019-02-08T01:07:03.509Z,23.27
2019-02-08T01:09:33.849Z,16.70
2019-02-08T01:12:03.303Z,19.93
2019-02-08T01:14:32.817Z,27.07
2019-02-08T01:17:02.194Z,9.53
2019-02-08T01:19:31.517Z,19.87
2019-02-08T01:22:00.873Z,18.40
2019-02-08T01:24:30.568Z,19.27
2019-02-08T01:26:59.876Z,13.80
2019-02-08T01:29:29.195Z,20.40
2019-02-08T01:32:05.364Z,27.40
2019-02-08T01:34:34.704Z,0.80
2019-02-08T01:37:04.004Z,1.00
2019-02-08T01:39:33.309Z,0.80
2019-02-08T01:42:02.602Z,0.90
2019-02-08T01:44:31.821Z,0.80
2019-02-08T01:47:01.190Z,0.70
2019-02-08T01:49:30.478Z,2.80
2019-02-08T01:51:59.814Z,0.73
2019-02-08T01:54:29.122Z,0.80
2019-02-08T01:56:58.442Z,2.03
2019-02-08T01:59:27.668Z,2.17
2019-02-08T02:01:57.033Z,0.70
2019-02-08T02:04:26.390Z,2.13
2019-02-08T02:06:55.700Z,0.73
2019-02-08T02:09:25.081Z,1.10
2019-02-08T02:11:54.449Z,1.67
2019-02-08T02:14:23.819Z,0.70
2019-02-08T02:16:53.208Z,1.00
2019-02-08T02:19:22.514Z,1.30
2019-02-08T02:21:52.743Z,0.77
2019-02-08T02:24:22.116Z,2.93
2019-02-08T02:27:10.571Z,5.70
2019-02-08T02:29:39.956Z,5.73
2019-02-08T02:32:09.338Z,0.87
2019-02-08T02:34:38.677Z,0.90
2019-02-08T02:37:08.141Z,2.53
2019-02-08T02:39:37.582Z,2.33
2019-02-08T02:42:06.977Z,1.50
2019-02-08T02:44:36.256Z,1.53
2019-02-08T02:47:05.637Z,6.05
2019-02-08T02:49:34.998Z,1.40
2019-02-08T02:52:04.357Z,4.20
2019-02-08T02:54:33.647Z,10.70
2019-02-08T02:57:02.943Z,0.70
2019-02-08T02:59:32.507Z,2.30
2019-02-08T03:02:01.723Z,3.70
2019-02-08T03:04:31.013Z,1.00
2019-02-08T03:07:00.324Z,2.37
2019-02-08T03:09:29.683Z,1.00
2019-02-08T03:11:59.039Z,3.60
2019-02-08T03:14:28.345Z,0.80
2019-02-08T03:16:57.626Z,0.70
2019-02-08T03:19:26.957Z,1.07
2019-02-08T03:21:56.270Z,1.10
2019-02-08T03:24:25.624Z,11.17
2019-02-08T03:26:54.945Z,0.90
2019-02-08T03:29:24.379Z,12.03
2019-02-08T03:31:53.740Z,2.40
2019-02-08T03:34:23.234Z,0.90
2019-02-08T03:36:52.503Z,0.80
2019-02-08T03:39:22.667Z,0.90
2019-02-08T03:41:54.340Z,1.37
2019-02-08T03:44:23.828Z,0.90
2019-02-08T03:46:53.094Z,0.70
2019-02-08T03:49:22.460Z,2.70
2019-02-08T03:51:51.811Z,1.20
2019-02-08T03:54:21.512Z,3.73
2019-02-08T03:56:50.828Z,1.73
2019-02-08T03:59:20.266Z,0.90
2019-02-08T04:01:49.574Z,1.93
2019-02-08T04:04:18.976Z,0.80
2019-02-08T04:06:48.309Z,2.57
2019-02-08T04:09:17.619Z,0.60
2019-02-08T04:11:46.924Z,2.47
2019-02-08T04:14:16.181Z,0.80
2019-02-08T04:16:45.562Z,2.45
2019-02-08T04:19:14.792Z,0.70
2019-02-08T04:21:44.212Z,10.18
2019-02-08T04:24:13.520Z,0.70
2019-02-08T04:26:42.894Z,1.40
2019-02-08T04:29:12.164Z,1.97
2019-02-08T04:31:43.799Z,1.93
2019-02-08T04:34:13.154Z,1.90
2019-02-08T04:36:45.020Z,0.70
2019-02-08T04:39:14.452Z,1.57
2019-02-08T04:41:44.676Z,1.23
2019-02-08T04:44:14.058Z,0.80
2019-02-08T04:46:43.471Z,9.03
2019-02-08T04:49:12.895Z,0.90
2019-02-08T04:51:42.212Z,11.83
2019-02-08T04:54:11.565Z,2.37
2019-02-08T04:56:41.111Z,3.13
2019-02-08T04:59:10.436Z,0.60
2019-02-08T05:01:39.817Z,0.73
2019-02-08T05:04:09.120Z,7.17
2019-02-08T05:06:38.452Z,2.40
2019-02-08T05:09:08.936Z,0.60
2019-02-08T05:11:38.322Z,0.67
2019-02-08T05:14:07.887Z,0.63
2019-02-08T05:16:37.159Z,3.30
2019-02-08T05:19:06.453Z,3.57
2019-02-08T05:21:35.817Z,0.60
2019-02-08T05:24:05.431Z,0.60
2019-02-08T05:26:40.095Z,0.70
2019-02-08T05:29:09.497Z,4.10
2019-02-08T05:31:38.843Z,0.87
2019-02-08T05:34:08.154Z,0.80
2019-02-08T05:36:37.666Z,2.10
2019-02-08T05:39:10.708Z,0.60
2019-02-08T05:41:40.111Z,0.60
2019-02-08T05:44:09.507Z,0.70
2019-02-08T05:46:38.836Z,8.23
2019-02-08T05:49:08.134Z,0.80
2019-02-08T05:51:37.437Z,0.83
2019-02-08T05:54:08.276Z,0.98
2019-02-08T05:56:37.574Z,0.85
2019-02-08T05:59:06.841Z,6.87
2019-02-08T06:01:36.214Z,0.60
2019-02-08T06:04:05.891Z,6.87
2019-02-08T06:06:35.094Z,1.90
2019-02-08T06:09:07.698Z,1.90
2019-02-08T06:11:37.102Z,0.60
2019-02-08T06:14:06.619Z,1.33
2019-02-08T06:16:35.905Z,0.70
2019-02-08T06:19:07.076Z,0.90
2019-02-08T06:21:36.555Z,0.70
2019-02-08T06:24:06.189Z,0.70
2019-02-08T06:26:35.474Z,1.63
2019-02-08T06:29:04.751Z,0.70
2019-02-08T06:31:33.997Z,0.70
2019-02-08T06:34:03.355Z,3.67
2019-02-08T06:36:32.755Z,0.70
2019-02-08T06:39:09.157Z,0.70
2019-02-08T06:41:38.470Z,4.00
2019-02-08T06:44:07.832Z,0.80
2019-02-08T06:46:37.200Z,0.70
2019-02-08T06:49:06.557Z,3.80
2019-02-08T06:51:35.861Z,0.77
2019-02-08T06:54:05.303Z,0.80
2019-02-08T06:57:05.559Z,1.53
2019-02-08T06:59:40.535Z,3.27
2019-02-08T07:02:34.845Z,1.53
2019-02-08T07:05:42.013Z,0.60
2019-02-08T07:08:22.288Z,0.80
2019-02-08T07:11:21.823Z,0.83
2019-02-08T07:14:10.179Z,2.03
2019-02-08T07:17:04.564Z,0.73
2019-02-08T07:19:43.235Z,1.77
2019-02-08T07:22:24.265Z,0.70
2019-02-08T07:25:04.750Z,0.60
2019-02-08T07:27:57.419Z,1.90
2019-02-08T07:31:08.020Z,1.90
2019-02-08T07:33:49.067Z,0.63
2019-02-08T07:36:29.542Z,2.93
2019-02-08T07:39:09.823Z,6.77
2019-02-08T07:42:10.606Z,7.23
2019-02-08T07:45:04.746Z,23.90
2019-02-08T07:47:44.400Z,9.37
2019-02-08T07:50:35.656Z,13.17
2019-02-08T07:53:23.496Z,16.43
2019-02-08T07:56:10.495Z,11.77
2019-02-08T07:58:57.674Z,10.37
2019-02-08T08:01:44.452Z,8.27
2019-02-08T08:04:35.539Z,11.23
2019-02-08T08:07:19.108Z,18.97
2019-02-08T08:10:00.625Z,22.73
2019-02-08T08:12:43.637Z,16.40
2019-02-08T08:15:27.347Z,19.93
2019-02-08T08:18:15.788Z,13.30
2019-02-08T08:21:13.265Z,18.00
2019-02-08T08:23:55.568Z,10.37
2019-02-08T08:26:44.637Z,11.57
2019-02-08T08:29:43.644Z,14.80
2019-02-08T08:32:39.654Z,14.30
2019-02-08T08:35:47.971Z,8.97
2019-02-08T08:38:35.650Z,12.97
2019-02-08T08:41:37.471Z,10.70
2019-02-08T08:44:59.928Z,14.30
2019-02-08T08:48:15.174Z,8.30
2019-02-08T08:51:29.799Z,13.10
2019-02-08T08:54:54.511Z,11.20
2019-02-08T08:57:59.869Z,9.00
2019-02-08T09:01:10.224Z,8.50
2019-02-08T09:04:13.175Z,14.60
2019-02-08T09:07:16.218Z,22.67
2019-02-08T09:10:21.174Z,12.03
2019-02-08T09:13:26.300Z,8.80
2019-02-08T09:16:26.022Z,11.90
2019-02-08T09:19:29.403Z,9.37
2019-02-08T09:22:51.780Z,10.60
2019-02-08T09:26:18.078Z,0.70
2019-02-08T09:29:31.710Z,1.63
2019-02-08T09:32:42.354Z,0.70
2019-02-08T09:35:48.725Z,0.60
2019-02-08T09:38:54.252Z,17.57
2019-02-08T09:42:25.712Z,14.37
2019-02-08T09:45:38.050Z,18.20
2019-02-08T09:48:52.214Z,10.23
2019-02-08T09:51:55.477Z,15.13
2019-02-08T09:55:05.961Z,15.30
2019-02-08T09:58:30.508Z,10.33
2019-02-08T10:01:17.163Z,11.77
2019-02-08T10:04:15.744Z,11.67
2019-02-08T10:07:21.419Z,10.70
2019-02-08T10:10:30.711Z,8.20
2019-02-08T10:13:36.447Z,16.53
2019-02-08T10:16:48.131Z,13.10
2019-02-08T10:19:57.201Z,10.13
2019-02-08T10:23:09.047Z,11.47
2019-02-08T10:26:06.395Z,12.73
2019-02-08T10:29:28.939Z,10.37
2019-02-08T10:32:44.605Z,14.20
2019-02-08T10:35:45.138Z,8.73
2019-02-08T10:38:59.713Z,9.17
2019-02-08T10:42:12.359Z,12.70
2019-02-08T10:45:25.731Z,11.70
2019-02-08T10:48:38.015Z,7.77
2019-02-08T10:52:02.671Z,10.00
2019-02-08T10:55:11.925Z,16.43
2019-02-08T10:58:26.905Z,12.07
2019-02-08T11:01:32.863Z,9.20
2019-02-08T11:04:52.072Z,7.87
2019-02-08T11:08:01.656Z,4.30
2019-02-08T11:11:09.326Z,4.03
2019-02-08T11:14:06.826Z,6.40
2019-02-08T11:17:31.232Z,7.00
2019-02-08T11:20:00.578Z,3.37
2019-02-08T11:22:29.989Z,5.17
2019-02-08T11:24:59.366Z,3.67
2019-02-08T11:27:35.602Z,3.67
2019-02-08T11:30:08.578Z,4.40
2019-02-08T11:32:43.394Z,7.43
2019-02-08T11:35:10.140Z,5.33
2019-02-08T11:37:39.548Z,6.37
2019-02-08T11:40:13.680Z,3.90
2019-02-08T11:42:43.124Z,4.57
2019-02-08T11:45:12.964Z,14.37
2019-02-08T11:47:42.470Z,3.57
2019-02-08T11:50:15.344Z,6.93
2019-02-08T11:52:44.775Z,3.63
2019-02-08T11:55:14.070Z,4.47
2019-02-08T11:57:43.267Z,3.23
2019-02-08T12:00:21.445Z,3.80
2019-02-08T12:02:50.862Z,2.73
2019-02-08T12:05:20.257Z,4.70
2019-02-08T12:07:49.671Z,3.53
2019-02-08T12:10:18.991Z,3.97
2019-02-08T12:12:48.339Z,4.03
2019-02-08T12:15:18.491Z,5.63
2019-02-08T12:17:47.755Z,4.30
2019-02-08T12:20:17.167Z,5.17
2019-02-08T12:22:46.549Z,3.73
2019-02-08T12:25:15.967Z,5.03
2019-02-08T12:27:45.222Z,3.07
2019-02-08T12:30:20.401Z,3.90
2019-02-08T12:32:49.671Z,3.43
2019-02-08T12:35:18.982Z,4.50
2019-02-08T12:37:48.241Z,3.80
2019-02-08T12:40:17.548Z,4.93
2019-02-08T12:42:46.896Z,4.77
2019-02-08T12:45:17.007Z,3.10
2019-02-08T12:47:48.383Z,3.60
2019-02-08T12:50:19.007Z,3.47
2019-02-08T12:52:48.293Z,10.70
2019-02-08T12:55:17.852Z,11.77
2019-02-08T12:57:47.228Z,14.70
2019-02-08T13:00:18.786Z,11.47
2019-02-08T13:06:10.758Z,10.13
2019-02-08T13:08:40.207Z,15.27
2019-02-08T13:11:09.668Z,12.13
2019-02-08T13:13:39.429Z,13.60
2019-02-08T13:16:10.410Z,13.17
2019-02-08T13:18:41.010Z,13.07
2019-02-08T13:21:10.476Z,12.97
2019-02-08T13:23:40.844Z,11.87
2019-02-08T13:26:10.251Z,12.23
2019-02-08T13:28:39.642Z,13.13
2019-02-08T13:31:11.346Z,11.87
2019-02-08T13:33:40.782Z,10.83
2019-02-08T13:36:15.131Z,10.50
2019-02-08T13:38:44.427Z,10.37
2019-02-08T13:41:14.973Z,10.80
2019-02-08T13:43:44.411Z,11.80
2019-02-08T13:46:13.768Z,13.63
2019-02-08T13:48:48.549Z,13.63
2019-02-08T13:51:18.213Z,16.07
2019-02-08T13:53:48.575Z,14.57
2019-02-08T13:56:21.724Z,13.97
2019-02-08T13:58:52.453Z,18.43
2019-02-08T14:01:38.874Z,13.30
2019-02-08T14:04:16.531Z,14.27
2019-02-08T14:06:48.891Z,12.43
2019-02-08T14:09:31.563Z,15.40
2019-02-08T14:12:01.523Z,14.23
2019-02-08T14:14:31.316Z,15.63
2019-02-08T14:17:18.891Z,17.20
2019-02-08T14:19:50.240Z,17.80
2019-02-08T14:22:30.121Z,19.93
2019-02-08T14:25:17.939Z,17.03
2019-02-08T14:27:52.454Z,15.80
2019-02-08T14:30:41.068Z,16.27
2019-02-08T14:33:13.512Z,18.90
2019-02-08T14:35:43.084Z,15.77
2019-02-08T14:38:18.243Z,16.80
2019-02-08T14:40:47.846Z,18.60
2019-02-08T14:43:19.557Z,22.60
2019-02-08T14:45:49.228Z,22.70
2019-02-08T14:48:19.102Z,20.37
2019-02-08T14:50:54.306Z,20.40
2019-02-08T14:53:25.784Z,23.53
2019-02-08T14:57:23.620Z,22.50
2019-02-08T14:59:56.504Z,27.23
2019-02-08T15:02:27.444Z,16.93
2019-02-08T15:04:59.108Z,18.43
2019-02-08T15:07:29.780Z,16.20
2019-02-08T15:09:59.576Z,15.83
2019-02-08T15:12:34.056Z,15.60
2019-02-08T15:15:05.088Z,19.90
2019-02-08T15:17:34.529Z,19.63
2019-02-08T15:20:06.458Z,19.40
2019-02-08T15:22:39.198Z,21.90
2019-02-08T15:25:39.804Z,17.80
2019-02-08T15:28:11.061Z,18.70
2019-02-08T15:30:40.429Z,14.07
2019-02-08T15:33:09.996Z,20.40
2019-02-08T15:35:45.340Z,24.23
2019-02-08T15:38:14.811Z,23.13
2019-02-08T15:40:48.034Z,25.33
2019-02-08T15:43:20.326Z,22.57
2019-02-08T15:45:55.342Z,24.30
2019-02-08T15:48:24.829Z,21.17
2019-02-08T15:50:54.393Z,24.60
2019-02-08T15:53:25.041Z,28.50
2019-02-08T15:55:58.066Z,21.50
2019-02-08T15:58:27.381Z,16.00
2019-02-08T16:00:56.824Z,20.30
2019-02-08T16:03:28.360Z,18.40
2019-02-08T16:05:57.845Z,24.03
2019-02-08T16:08:28.333Z,18.97
2019-02-08T16:10:57.792Z,20.77
2019-02-08T16:13:27.217Z,17.87
2019-02-08T16:15:56.705Z,16.20
2019-02-08T16:18:26.075Z,15.90
2019-02-08T16:20:56.668Z,20.53
2019-02-08T16:23:26.032Z,17.27
2019-02-08T16:25:55.430Z,25.87
2019-02-08T16:28:25.885Z,22.10
2019-02-08T16:30:55.424Z,20.13
2019-02-08T16:33:26.940Z,20.73
2019-02-08T16:36:01.681Z,21.67
2019-02-08T16:38:31.334Z,23.90
2019-02-08T16:41:01.042Z,18.23
2019-02-08T16:43:30.797Z,22.77
2019-02-08T16:46:00.516Z,19.53
2019-02-08T16:48:32.980Z,17.17
2019-02-08T16:51:04.829Z,21.90
2019-02-08T16:53:34.230Z,25.90
2019-02-08T16:56:10.202Z,19.70
2019-02-08T16:58:48.965Z,21.10
2019-02-08T17:01:18.360Z,26.07
2019-02-08T17:03:48.966Z,29.17
2019-02-08T17:06:24.972Z,24.17
2019-02-08T17:08:54.287Z,24.20
2019-02-08T17:11:24.795Z,24.90
2019-02-08T17:13:54.213Z,27.57
2019-02-08T17:16:23.611Z,19.50
2019-02-08T17:18:58.102Z,25.10
2019-02-08T17:21:27.452Z,25.47
2019-02-08T17:23:56.819Z,18.20
2019-02-08T17:26:28.435Z,19.83
2019-02-08T17:28:57.749Z,24.37
2019-02-08T17:31:27.219Z,28.93
2019-02-08T17:33:57.892Z,22.43
2019-02-08T17:36:27.715Z,28.43
2019-02-08T17:39:02.555Z,21.53
2019-02-08T17:41:32.083Z,31.43
2019-02-08T17:44:01.888Z,22.93
2019-02-08T17:46:31.798Z,29.80
2019-02-08T17:49:01.478Z,22.43
2019-02-08T17:51:31.139Z,30.00
2019-02-08T17:54:00.951Z,22.90
2019-02-08T17:56:33.347Z,27.37
2019-02-08T17:59:03.105Z,21.67
2019-02-08T18:01:32.793Z,24.93
2019-02-08T18:04:02.783Z,25.93
2019-02-08T18:06:32.371Z,25.10
2019-02-08T18:09:02.020Z,20.03
2019-02-08T18:11:31.981Z,20.10
2019-02-08T18:14:03.217Z,20.07
2019-02-08T18:16:33.534Z,17.90
2019-02-08T18:19:04.525Z,24.33
2019-02-08T18:21:36.125Z,23.90
2019-02-08T18:24:07.096Z,20.50
2019-02-08T18:26:38.312Z,21.33
2019-02-08T18:29:11.000Z,23.70
2019-02-08T18:31:41.179Z,25.37
2019-02-08T18:34:11.704Z,18.60
2019-02-08T18:36:42.054Z,24.37
2019-02-08T18:39:11.862Z,15.87
2019-02-08T18:41:42.622Z,19.83
2019-02-08T18:44:12.452Z,19.13
2019-02-08T18:46:41.837Z,17.10
2019-02-08T18:49:11.366Z,14.20
2019-02-08T18:51:40.744Z,20.63
2019-02-08T18:54:10.215Z,19.47
2019-02-08T18:56:39.545Z,18.47
2019-02-08T18:59:08.975Z,16.17
2019-02-08T19:01:38.282Z,23.07
2019-02-08T19:04:07.663Z,21.00
2019-02-08T19:06:37.118Z,15.50
2019-02-08T19:09:09.138Z,14.37
2019-02-08T19:11:38.518Z,20.10
2019-02-08T19:14:07.942Z,12.47
2019-02-08T19:16:37.241Z,16.87
2019-02-08T19:19:06.609Z,15.87
2019-02-08T19:21:36.168Z,18.37
2019-02-08T19:24:06.001Z,19.63
2019-02-08T19:26:35.951Z,15.00
2019-02-08T19:29:05.897Z,23.93
2019-02-08T19:31:35.732Z,15.53
2019-02-08T19:34:05.381Z,15.40
2019-02-08T19:36:34.795Z,11.87
2019-02-08T19:39:12.713Z,14.38
2019-02-08T19:41:42.506Z,12.77
2019-02-08T19:44:13.590Z,17.33
2019-02-08T19:46:43.596Z,15.03
2019-02-08T19:49:13.898Z,19.90
2019-02-08T19:51:43.511Z,14.30
2019-02-08T19:54:12.913Z,19.27
2019-02-08T19:56:42.713Z,11.60
2019-02-08T19:59:12.107Z,11.57
2019-02-08T20:01:41.794Z,12.37
2019-02-08T20:04:11.277Z,12.60
2019-02-08T20:06:41.094Z,16.50
2019-02-08T20:09:10.986Z,14.43
2019-02-08T20:11:40.562Z,13.40
2019-02-08T20:14:10.256Z,18.10
2019-02-08T20:16:39.834Z,11.67
2019-02-08T20:19:09.330Z,15.07
2019-02-08T20:21:39.282Z,11.53
2019-02-08T20:24:08.830Z,17.47
2019-02-08T20:26:38.586Z,13.00
2019-02-08T20:29:08.348Z,14.97
2019-02-08T20:31:38.115Z,16.00
2019-02-08T20:34:10.101Z,9.70
2019-02-08T20:36:40.867Z,16.23
2019-02-08T20:39:13.075Z,10.20
2019-02-08T20:41:42.588Z,15.13
2019-02-08T20:44:14.326Z,11.97
2019-02-08T20:46:44.420Z,10.10
2019-02-08T20:49:17.034Z,13.47
2019-02-08T20:51:48.764Z,12.27
2019-02-08T20:54:18.236Z,13.00
2019-02-08T20:56:47.676Z,11.77
2019-02-08T20:59:17.185Z,12.80
2019-02-08T21:01:46.656Z,10.20
2019-02-08T21:04:16.273Z,14.53
2019-02-08T21:06:45.740Z,9.70
2019-02-08T21:09:17.397Z,11.50
2019-02-08T21:11:46.918Z,17.53
2019-02-08T21:14:16.447Z,8.40
2019-02-08T21:16:45.930Z,8.60
2019-02-08T21:19:15.453Z,17.23
2019-02-08T21:21:44.979Z,11.77
2019-02-08T21:25:02.019Z,14.63
2019-02-08T21:30:47.136Z,10.17
2019-02-08T21:33:44.277Z,10.93
2019-02-08T21:36:55.109Z,12.80
2019-02-08T21:43:22.691Z,0.70
2019-02-08T21:46:13.075Z,0.60
2019-02-08T21:48:56.862Z,0.83
2019-02-08T21:54:52.448Z,0.70
2019-02-08T21:57:27.861Z,1.37
2019-02-08T21:59:59.136Z,0.87
2019-02-08T22:13:17.134Z,6.97
2019-02-08T22:15:52.371Z,7.37
2019-02-08T22:18:47.420Z,7.40
2019-02-08T22:21:22.038Z,7.80
2019-02-08T22:24:33.498Z,8.40
2019-02-08T22:27:02.968Z,6.73
2019-02-08T22:29:32.337Z,5.47
2019-02-08T22:32:02.093Z,5.13
2019-02-08T22:34:32.332Z,7.60
2019-02-08T22:37:01.922Z,5.57
2019-02-08T22:39:36.356Z,9.03
2019-02-08T22:42:12.048Z,7.87
2019-02-08T22:44:42.130Z,6.97
2019-02-08T22:47:11.645Z,5.77
2019-02-08T22:49:42.533Z,7.43
2019-02-08T22:52:12.091Z,5.57
2019-02-08T22:54:41.555Z,8.03
2019-02-08T22:57:10.994Z,6.50
2019-02-08T22:59:40.447Z,5.57
2019-02-08T23:02:12.221Z,4.90
2019-02-08T23:04:41.625Z,4.77
2019-02-08T23:07:11.063Z,8.67
2019-02-08T23:09:40.414Z,6.22
2019-02-08T23:12:09.801Z,5.60
2019-02-08T23:14:39.471Z,6.47
2019-02-08T23:17:09.117Z,5.40
2019-02-08T23:19:38.623Z,5.97
2019-02-08T23:22:08.221Z,5.47
2019-02-08T23:24:37.665Z,10.40
2019-02-08T23:27:07.227Z,5.50
2019-02-08T23:29:36.661Z,6.60
2019-02-08T23:32:06.185Z,8.00
2019-02-08T23:34:36.019Z,6.10
2019-02-08T23:37:05.434Z,5.70
2019-02-08T23:39:34.907Z,4.27
2019-02-08T23:42:04.221Z,4.67
2019-02-08T23:44:33.637Z,6.37
2019-02-08T23:47:03.053Z,6.37
2019-02-08T23:49:32.459Z,5.70
2019-02-08T23:52:01.786Z,5.47
2019-02-08T23:54:31.207Z,7.13
2019-02-08T23:57:00.502Z,6.80
2019-02-08T23:59:37.695Z,5.63
